Terminal Aerodrome Forecast
Issued by NWS

Home | Current Version | Previous Version | Text Only | Print | Product List | Glossary On
Versions: 1 2 3 4 5 6 7 8 9 10 11 12 13 14 15
000
FTUS45 KFGZ 301730
TAFPRC
TAF
KPRC 301730Z 3018/3118 21008KT P6SM SCT090 BKN110
      TEMPO 3019/3023 VRB15G25KT 2SM TSRA BKN080CB
     FM310200 VRB06KT P6SM BKN090=

USA.gov is the U.S. government's official web portal to all federal, state and local government web resources and services.